createdAt,value
2018-09-14T00:00:02.544Z,15.83
2018-09-14T00:02:31.314Z,14.17
2018-09-14T00:05:06.931Z,16.60
2018-09-14T00:07:36.114Z,10.67
2018-09-14T00:10:05.174Z,14.00
2018-09-14T00:12:35.967Z,10.97
2018-09-14T00:15:05.073Z,10.37
2018-09-14T00:17:34.485Z,10.73
2018-09-14T00:20:03.919Z,10.97
2018-09-14T00:22:32.708Z,9.97
2018-09-14T00:25:01.484Z,9.90
2018-09-14T00:27:30.622Z,10.40
2018-09-14T00:29:59.407Z,12.00
2018-09-14T00:32:30.101Z,9.50
2018-09-14T00:34:59.691Z,12.47
2018-09-14T00:37:29.172Z,14.40
2018-09-14T00:39:58.757Z,10.00
2018-09-14T00:42:27.555Z,13.73
2018-09-14T00:44:56.667Z,9.60
2018-09-14T00:47:26.348Z,11.93
2018-09-14T00:49:56.534Z,11.77
2018-09-14T00:52:25.736Z,26.43
2018-09-14T00:54:54.902Z,11.43
2018-09-14T00:57:25.580Z,14.47
2018-09-14T00:59:55.825Z,14.67
2018-09-14T01:02:24.581Z,12.10
2018-09-14T01:04:54.809Z,16.83
2018-09-14T01:07:23.795Z,11.00
2018-09-14T01:09:54.378Z,11.30
2018-09-14T01:12:23.652Z,15.80
2018-09-14T01:14:53.383Z,13.97
2018-09-14T01:17:23.582Z,8.73
2018-09-14T01:19:53.640Z,15.43
2018-09-14T01:22:23.717Z,21.10
2018-09-14T01:24:52.553Z,16.80
2018-09-14T01:27:22.551Z,13.40
2018-09-14T01:29:52.336Z,20.53
2018-09-14T01:32:22.473Z,20.63
2018-09-14T01:34:52.671Z,18.53
2018-09-14T01:37:22.782Z,20.90
2018-09-14T01:39:52.698Z,17.27
2018-09-14T01:42:22.468Z,18.73
2018-09-14T01:44:51.882Z,18.40
2018-09-14T01:47:21.227Z,16.50
2018-09-14T01:49:50.826Z,21.10
2018-09-14T01:52:20.027Z,14.87
2018-09-14T01:54:49.082Z,37.13
2018-09-14T01:57:18.627Z,39.77
2018-09-14T01:59:48.149Z,22.83
2018-09-14T02:02:25.821Z,21.30
2018-09-14T02:04:55.591Z,21.70
2018-09-14T02:07:24.862Z,18.73
2018-09-14T02:09:54.777Z,20.47
2018-09-14T02:12:24.081Z,18.23
2018-09-14T02:14:53.623Z,19.70
2018-09-14T02:17:23.227Z,23.10
2018-09-14T02:19:53.583Z,16.87
2018-09-14T02:22:22.688Z,39.63
2018-09-14T02:24:55.191Z,23.00
2018-09-14T02:27:24.427Z,16.73
2018-09-14T02:29:57.480Z,28.20
2018-09-14T02:32:26.650Z,11.37
2018-09-14T02:34:56.488Z,17.80
2018-09-14T02:37:26.750Z,16.77
2018-09-14T02:39:56.797Z,13.90
2018-09-14T02:42:27.528Z,14.80
2018-09-14T02:44:56.327Z,19.00
2018-09-14T02:47:25.115Z,18.27
2018-09-14T02:49:54.138Z,23.03
2018-09-14T02:52:22.890Z,24.50
2018-09-14T02:54:52.171Z,24.60
2018-09-14T02:57:20.958Z,20.37
2018-09-14T02:59:49.771Z,16.47
2018-09-14T03:02:18.530Z,15.70
2018-09-14T03:04:47.307Z,19.90
2018-09-14T03:07:16.181Z,15.50
2018-09-14T03:09:44.963Z,17.87
2018-09-14T03:12:13.722Z,21.33
2018-09-14T03:14:42.472Z,18.60
2018-09-14T03:17:11.275Z,17.00
2018-09-14T03:19:40.158Z,19.93
2018-09-14T03:22:08.867Z,19.67
2018-09-14T03:24:37.624Z,23.23
2018-09-14T03:27:06.657Z,27.80
2018-09-14T03:29:35.383Z,22.10
2018-09-14T03:32:04.575Z,26.50
2018-09-14T03:34:33.584Z,25.70
2018-09-14T03:37:02.339Z,28.80
2018-09-14T03:39:31.110Z,27.60
2018-09-14T03:41:59.908Z,31.77
2018-09-14T03:44:28.776Z,23.53
2018-09-14T03:46:57.579Z,28.80
2018-09-14T03:49:26.340Z,35.20
2018-09-14T03:51:55.178Z,33.10
2018-09-14T03:54:24.765Z,26.33
2018-09-14T03:56:53.614Z,27.83
2018-09-14T03:59:22.531Z,31.43
2018-09-14T04:01:51.382Z,43.60
2018-09-14T04:04:20.297Z,23.53
2018-09-14T04:06:49.051Z,26.90
2018-09-14T04:09:18.266Z,29.20
2018-09-14T04:11:47.064Z,45.90
2018-09-14T04:17:01.510Z,35.53
2018-09-14T04:19:30.532Z,39.07
2018-09-14T04:21:59.334Z,33.90
2018-09-14T04:24:28.098Z,35.00
2018-09-14T04:26:57.190Z,32.27
2018-09-14T04:29:25.975Z,38.47
2018-09-14T04:31:55.279Z,42.27
2018-09-14T04:34:24.142Z,40.80
2018-09-14T04:36:52.903Z,43.10
2018-09-14T04:39:22.310Z,44.10
2018-09-14T04:41:51.118Z,37.63
2018-09-14T04:44:19.946Z,50.67
2018-09-14T04:46:48.785Z,42.20
2018-09-14T04:49:17.622Z,50.77
2018-09-14T04:51:46.435Z,44.53
2018-09-14T04:54:15.570Z,35.47
2018-09-14T04:56:44.620Z,49.13
2018-09-14T04:59:13.615Z,45.47
2018-09-14T05:01:42.421Z,38.73
2018-09-14T05:04:11.239Z,48.00
2018-09-14T05:06:40.006Z,41.90
2018-09-14T05:09:08.988Z,51.07
2018-09-14T05:11:37.947Z,36.00
2018-09-14T05:14:06.722Z,44.20
2018-09-14T05:16:35.487Z,36.03
2018-09-14T05:19:04.339Z,32.90
2018-09-14T05:21:33.231Z,34.67
2018-09-14T05:24:01.993Z,34.37
2018-09-14T05:26:31.031Z,33.50
2018-09-14T05:28:59.809Z,29.80
2018-09-14T05:31:28.600Z,35.13
2018-09-14T05:33:57.437Z,33.90
2018-09-14T05:36:26.229Z,67.47
2018-09-14T05:38:55.088Z,43.47
2018-09-14T05:41:23.866Z,32.27
2018-09-14T05:43:52.670Z,64.43
2018-09-14T05:46:21.397Z,27.33
2018-09-14T05:48:50.138Z,28.37
2018-09-14T05:51:18.961Z,20.47
2018-09-14T05:53:47.872Z,22.30
2018-09-14T05:56:16.805Z,21.43
2018-09-14T05:58:45.734Z,30.83
2018-09-14T06:01:14.484Z,22.40
2018-09-14T06:03:44.031Z,20.60
2018-09-14T06:06:13.162Z,20.47
2018-09-14T06:08:42.066Z,15.67
2018-09-14T06:11:10.812Z,15.70
2018-09-14T06:13:39.665Z,15.10
2018-09-14T06:16:08.495Z,15.53
2018-09-14T06:18:37.180Z,11.80
2018-09-14T06:21:06.291Z,9.90
2018-09-14T06:23:35.098Z,7.80
2018-09-14T06:26:03.958Z,7.47
2018-09-14T06:28:33.254Z,9.80
2018-09-14T06:31:02.046Z,9.77
2018-09-14T06:33:33.170Z,10.37
2018-09-14T06:36:03.592Z,8.43
2018-09-14T06:38:33.250Z,6.87
2018-09-14T06:41:03.991Z,8.10
2018-09-14T06:43:33.385Z,7.87
2018-09-14T06:46:03.002Z,7.77
2018-09-14T06:48:33.824Z,7.60
2018-09-14T06:51:03.292Z,6.83
2018-09-14T06:53:32.095Z,7.47
2018-09-14T06:56:01.330Z,8.37
2018-09-14T06:58:31.060Z,8.90
2018-09-14T07:01:00.887Z,9.30
2018-09-14T07:03:30.148Z,9.57
2018-09-14T07:05:59.237Z,9.10
2018-09-14T07:08:28.020Z,9.73
2018-09-14T07:10:56.862Z,8.93
2018-09-14T07:13:25.812Z,9.27
2018-09-14T07:15:54.682Z,10.30
2018-09-14T07:18:25.513Z,9.33
2018-09-14T07:20:55.340Z,9.03
2018-09-14T07:23:24.588Z,8.77
2018-09-14T07:25:54.254Z,9.97
2018-09-14T07:28:23.681Z,9.17
2018-09-14T07:30:53.287Z,10.87
2018-09-14T07:33:22.739Z,8.77
2018-09-14T07:35:52.345Z,9.07
2018-09-14T07:38:22.689Z,8.87
2018-09-14T07:40:52.986Z,8.77
2018-09-14T07:43:22.579Z,9.53
2018-09-14T07:45:52.453Z,9.50
2018-09-14T07:48:22.273Z,9.33
2018-09-14T07:50:52.148Z,10.40
2018-09-14T07:53:21.547Z,9.87
2018-09-14T07:55:50.952Z,10.10
2018-09-14T07:58:20.678Z,11.70
2018-09-14T08:00:50.297Z,11.00
2018-09-14T08:03:19.508Z,11.63
2018-09-14T08:05:48.300Z,10.90
2018-09-14T08:08:17.114Z,10.33
2018-09-14T08:10:45.895Z,10.30
2018-09-14T08:13:17.138Z,9.50
2018-09-14T08:15:47.732Z,10.13
2018-09-14T08:18:17.335Z,9.70
2018-09-14T08:20:46.977Z,10.03
2018-09-14T08:23:16.835Z,10.53
2018-09-14T08:25:46.767Z,10.50
2018-09-14T08:28:17.667Z,11.20
2018-09-14T08:30:48.285Z,11.10
2018-09-14T08:33:17.895Z,11.37
2018-09-14T08:35:48.345Z,11.40
2018-09-14T08:38:17.394Z,11.37
2018-09-14T08:40:46.158Z,12.47
2018-09-14T08:43:14.923Z,10.87
2018-09-14T08:45:44.067Z,11.40
2018-09-14T08:48:12.894Z,10.63
2018-09-14T08:50:41.696Z,11.17
2018-09-14T08:53:10.472Z,10.30
2018-09-14T08:55:39.658Z,9.70
2018-09-14T08:58:08.598Z,9.33
2018-09-14T09:00:37.391Z,10.00
2018-09-14T09:03:06.418Z,9.47
2018-09-14T09:05:35.885Z,10.67
2018-09-14T09:08:04.729Z,11.27
2018-09-14T09:10:33.614Z,11.27
2018-09-14T09:13:02.406Z,11.10
2018-09-14T09:15:31.250Z,11.07
2018-09-14T09:18:00.010Z,11.43
2018-09-14T09:20:28.789Z,10.07
2018-09-14T09:22:57.893Z,11.50
2018-09-14T09:25:26.954Z,12.00
2018-09-14T09:27:55.760Z,10.70
2018-09-14T09:30:24.562Z,10.67
2018-09-14T09:32:53.413Z,10.90
2018-09-14T09:35:22.351Z,10.13
2018-09-14T09:37:51.145Z,10.83
2018-09-14T09:40:19.979Z,11.70
2018-09-14T09:42:48.871Z,12.20
2018-09-14T09:45:17.767Z,11.40
2018-09-14T09:47:46.684Z,8.10
2018-09-14T09:50:15.456Z,10.20
2018-09-14T09:52:44.284Z,10.30
2018-09-14T09:55:13.078Z,10.90
2018-09-14T09:57:42.491Z,11.30
2018-09-14T10:00:16.687Z,10.97
2018-09-14T10:02:51.099Z,11.40
2018-09-14T10:05:25.155Z,9.83
2018-09-14T10:07:54.213Z,9.03
2018-09-14T10:10:23.139Z,10.10
2018-09-14T10:12:52.796Z,10.00
2018-09-14T10:15:22.107Z,9.63
2018-09-14T10:17:50.901Z,8.27
2018-09-14T10:20:19.689Z,8.03
2018-09-14T10:22:48.593Z,7.90
2018-09-14T10:25:17.356Z,7.97
2018-09-14T10:27:46.189Z,7.23
2018-09-14T10:30:14.985Z,7.57
2018-09-14T10:32:43.761Z,6.67
2018-09-14T10:35:12.894Z,8.03
2018-09-14T10:37:41.684Z,7.77
2018-09-14T10:40:10.533Z,8.13
2018-09-14T10:42:39.291Z,6.50
2018-09-14T10:45:08.145Z,8.20
2018-09-14T10:47:37.086Z,7.67
2018-09-14T10:50:06.018Z,7.87
2018-09-14T10:52:34.807Z,7.77
2018-09-14T10:55:03.590Z,6.53
2018-09-14T10:57:32.338Z,6.73
2018-09-14T11:00:01.365Z,6.63
2018-09-14T11:02:30.517Z,6.87
2018-09-14T11:04:59.477Z,6.93
2018-09-14T11:07:28.512Z,7.00
2018-09-14T11:09:57.630Z,7.53
2018-09-14T11:12:26.751Z,7.27
2018-09-14T11:14:55.662Z,6.20
2018-09-14T11:17:24.622Z,8.60
2018-09-14T11:19:56.252Z,9.77
2018-09-14T11:22:27.583Z,10.23
2018-09-14T11:24:57.303Z,9.50
2018-09-14T11:27:26.441Z,10.23
2018-09-14T11:29:56.975Z,10.23
2018-09-14T11:32:26.777Z,10.90
2018-09-14T11:34:55.719Z,10.83
2018-09-14T11:37:24.700Z,11.40
2018-09-14T11:39:55.017Z,10.10
2018-09-14T11:42:25.227Z,11.00
2018-09-14T11:44:56.050Z,10.20
2018-09-14T11:47:25.334Z,9.70
2018-09-14T11:49:57.256Z,10.33
2018-09-14T11:52:26.778Z,9.93
2018-09-14T11:54:56.101Z,9.20
2018-09-14T11:57:25.885Z,10.13
2018-09-14T11:59:56.126Z,10.13
2018-09-14T12:02:26.475Z,9.90
2018-09-14T12:04:56.672Z,9.77
2018-09-14T12:07:25.462Z,9.43
2018-09-14T12:09:54.350Z,9.03
2018-09-14T12:12:25.203Z,8.73
2018-09-14T12:14:54.387Z,8.97
2018-09-14T12:17:25.562Z,9.40
2018-09-14T12:19:56.143Z,8.90
2018-09-14T12:22:25.878Z,8.90
2018-09-14T12:24:54.864Z,8.40
2018-09-14T12:27:26.393Z,8.00
2018-09-14T12:29:55.487Z,8.50
2018-09-14T12:32:25.139Z,7.90
2018-09-14T12:34:54.000Z,8.63
2018-09-14T12:37:22.770Z,6.90
2018-09-14T12:39:52.656Z,6.63
2018-09-14T12:42:21.689Z,8.10
2018-09-14T12:44:52.143Z,7.40
2018-09-14T12:47:22.168Z,8.80
2018-09-14T12:49:52.152Z,7.23
2018-09-14T12:52:21.099Z,7.07
2018-09-14T12:54:51.595Z,7.30
2018-09-14T12:57:22.605Z,7.40
2018-09-14T12:59:51.824Z,6.40
2018-09-14T13:02:20.833Z,6.53
2018-09-14T13:04:50.343Z,7.30
2018-09-14T13:07:19.746Z,7.70
2018-09-14T13:09:49.112Z,7.27
2018-09-14T13:12:20.349Z,7.10
2018-09-14T13:14:49.483Z,7.80
2018-09-14T13:17:19.534Z,7.10
2018-09-14T13:19:50.550Z,6.50
2018-09-14T13:22:20.051Z,6.07
2018-09-14T13:24:49.708Z,6.50
2018-09-14T13:27:18.723Z,7.17
2018-09-14T13:29:48.906Z,6.87
2018-09-14T13:32:19.653Z,5.93
2018-09-14T13:34:50.147Z,15.43
2018-09-14T13:37:19.010Z,6.30
2018-09-14T13:39:48.039Z,6.60
2018-09-14T13:42:23.276Z,6.97
2018-09-14T13:44:56.989Z,7.20
2018-09-14T13:47:31.401Z,7.27
2018-09-14T13:50:04.137Z,6.90
2018-09-14T13:52:44.032Z,8.60
2018-09-14T13:55:24.355Z,8.57
2018-09-14T13:57:56.841Z,8.97
2018-09-14T14:00:26.431Z,8.40
2018-09-14T14:02:57.224Z,8.03
2018-09-14T14:05:26.588Z,8.03
2018-09-14T14:07:55.601Z,9.13
2018-09-14T14:10:25.151Z,6.30
2018-09-14T14:12:59.832Z,7.17
2018-09-14T14:15:34.473Z,8.00
2018-09-14T14:18:04.640Z,7.77
2018-09-14T14:20:33.462Z,8.60
2018-09-14T14:23:03.611Z,7.83
2018-09-14T14:25:34.182Z,7.73
2018-09-14T14:28:04.222Z,8.13
2018-09-14T14:30:35.742Z,8.40
2018-09-14T14:33:05.393Z,9.03
2018-09-14T14:35:37.776Z,10.17
2018-09-14T14:38:07.412Z,8.77
2018-09-14T14:40:36.147Z,8.53
2018-09-14T14:43:06.272Z,10.77
2018-09-14T14:45:37.264Z,8.80
2018-09-14T14:48:07.045Z,8.90
2018-09-14T14:50:36.199Z,9.07
2018-09-14T14:53:06.785Z,8.90
2018-09-14T14:55:35.501Z,7.87
2018-09-14T14:58:05.204Z,7.60
2018-09-14T15:00:35.696Z,8.53
2018-09-14T15:03:04.688Z,7.77
2018-09-14T15:05:34.810Z,8.07
2018-09-14T15:08:04.562Z,8.37
2018-09-14T15:10:33.426Z,9.50
2018-09-14T15:13:03.324Z,7.00
2018-09-14T15:15:32.753Z,9.07
2018-09-14T15:18:01.506Z,9.30
2018-09-14T15:20:30.971Z,8.43
2018-09-14T15:23:00.427Z,9.03
2018-09-14T15:25:29.224Z,7.47
2018-09-14T15:27:59.884Z,8.10
2018-09-14T15:30:29.538Z,8.00
2018-09-14T15:32:58.927Z,7.97
2018-09-14T15:35:30.489Z,8.37
2018-09-14T15:38:00.420Z,8.13
2018-09-14T15:40:32.445Z,7.90
2018-09-14T15:43:01.890Z,8.60
2018-09-14T15:45:30.790Z,8.43
2018-09-14T15:48:01.203Z,8.07
2018-09-14T15:50:30.770Z,9.07
2018-09-14T15:53:01.038Z,8.67
2018-09-14T15:55:29.946Z,9.40
2018-09-14T15:57:58.752Z,8.50
2018-09-14T16:00:27.995Z,9.00
2018-09-14T16:02:56.793Z,8.20
2018-09-14T16:05:25.644Z,8.03
2018-09-14T16:07:54.565Z,7.80
2018-09-14T16:10:23.349Z,8.07
2018-09-14T16:12:52.279Z,8.43
2018-09-14T16:15:21.494Z,7.93
2018-09-14T16:17:50.402Z,8.77
2018-09-14T16:20:19.107Z,7.13
2018-09-14T16:22:47.981Z,8.83
2018-09-14T16:25:17.036Z,7.93
2018-09-14T16:27:45.885Z,7.30
2018-09-14T16:30:14.672Z,7.80
2018-09-14T16:32:43.515Z,8.93
2018-09-14T16:35:12.291Z,7.13
2018-09-14T16:37:41.406Z,7.80
2018-09-14T16:40:11.366Z,6.90
2018-09-14T16:42:40.075Z,8.07
2018-09-14T16:45:08.933Z,7.20
2018-09-14T16:47:37.688Z,5.83
2018-09-14T16:50:06.656Z,6.60
2018-09-14T16:52:35.398Z,6.80
2018-09-14T16:55:04.171Z,7.20
2018-09-14T16:57:33.028Z,6.67
2018-09-14T17:00:01.858Z,6.77
2018-09-14T17:02:31.441Z,6.90
2018-09-14T17:05:01.058Z,8.13
2018-09-14T17:07:31.381Z,6.37
2018-09-14T17:10:01.029Z,7.33
2018-09-14T17:12:29.827Z,7.10
2018-09-14T17:14:59.403Z,6.93
2018-09-14T17:17:29.035Z,10.83
2018-09-14T17:19:57.987Z,6.50
2018-09-14T17:22:27.200Z,6.43
2018-09-14T17:24:56.017Z,6.63
2018-09-14T17:27:25.150Z,6.97
2018-09-14T17:29:54.077Z,7.20
2018-09-14T17:32:24.700Z,9.47
2018-09-14T17:34:54.019Z,7.10
2018-09-14T17:37:22.822Z,6.00
2018-09-14T17:39:51.589Z,7.10
2018-09-14T17:42:20.536Z,6.53
2018-09-14T17:44:49.354Z,7.50
2018-09-14T17:47:18.203Z,6.67
2018-09-14T17:49:47.054Z,6.90
2018-09-14T17:52:17.524Z,7.70
2018-09-14T17:54:47.531Z,7.60
2018-09-14T17:57:17.602Z,13.10
2018-09-14T17:59:47.428Z,7.33
2018-09-14T18:02:17.087Z,6.90
2018-09-14T18:04:46.691Z,7.00
2018-09-14T18:07:16.854Z,7.33
2018-09-14T18:09:46.757Z,7.60
2018-09-14T18:12:16.089Z,7.43
2018-09-14T18:14:46.764Z,7.57
2018-09-14T18:17:16.355Z,6.77
2018-09-14T18:19:45.932Z,6.00
2018-09-14T18:22:16.553Z,6.87
2018-09-14T18:24:47.168Z,7.20
2018-09-14T18:27:16.931Z,7.20
2018-09-14T18:29:48.455Z,7.97
2018-09-14T18:32:19.881Z,8.43
2018-09-14T18:34:49.345Z,8.23
2018-09-14T18:37:20.729Z,12.33
2018-09-14T18:39:50.672Z,8.60
2018-09-14T18:42:21.276Z,6.67
2018-09-14T18:44:52.740Z,8.97
2018-09-14T18:47:22.615Z,8.90
2018-09-14T18:49:54.647Z,6.53
2018-09-14T18:52:25.141Z,6.73
2018-09-14T18:54:59.384Z,9.03
2018-09-14T18:57:31.257Z,6.23
2018-09-14T19:00:02.537Z,6.90
2018-09-14T19:02:32.556Z,8.30
2018-09-14T19:05:03.125Z,10.63
2018-09-14T19:07:33.546Z,6.13
2018-09-14T19:10:03.855Z,7.73
2018-09-14T19:12:33.693Z,7.60
2018-09-14T19:15:03.824Z,8.20
2018-09-14T19:17:34.039Z,10.87
2018-09-14T19:20:04.963Z,6.80
2018-09-14T19:22:34.839Z,16.10
2018-09-14T19:25:05.409Z,8.27
2018-09-14T19:27:35.320Z,8.30
2018-09-14T19:30:04.482Z,11.83
2018-09-14T19:32:36.075Z,9.30
2018-09-14T19:35:05.884Z,8.60
2018-09-14T19:37:36.297Z,9.00
2018-09-14T19:40:06.754Z,13.23
2018-09-14T19:42:36.226Z,9.37
2018-09-14T19:45:06.470Z,13.23
2018-09-14T19:47:37.922Z,14.57
2018-09-14T19:50:07.745Z,14.60
2018-09-14T19:52:38.883Z,21.03
2018-09-14T19:55:10.843Z,17.90
2018-09-14T19:57:42.107Z,12.63
2018-09-14T20:00:11.682Z,11.03
2018-09-14T20:02:42.123Z,18.70
2018-09-14T20:05:12.271Z,13.83
2018-09-14T20:07:42.268Z,14.40
2018-09-14T20:10:11.825Z,18.60
2018-09-14T20:12:41.672Z,20.70
2018-09-14T20:15:12.386Z,16.60
2018-09-14T20:17:41.912Z,19.03
2018-09-14T20:20:11.770Z,17.93
2018-09-14T20:22:41.884Z,18.20
2018-09-14T20:25:11.582Z,17.53
2018-09-14T20:27:41.394Z,17.63
2018-09-14T20:30:10.975Z,15.77
2018-09-14T20:32:41.180Z,13.77
2018-09-14T20:35:11.571Z,15.23
2018-09-14T20:37:41.068Z,16.23
2018-09-14T20:40:10.557Z,16.50
2018-09-14T20:42:40.874Z,15.50
2018-09-14T20:45:11.480Z,15.53
2018-09-14T20:47:41.196Z,13.20
2018-09-14T20:50:11.467Z,12.70
2018-09-14T20:52:40.337Z,17.23
2018-09-14T20:55:09.196Z,15.27
2018-09-14T20:57:38.642Z,14.43
2018-09-14T21:00:08.332Z,15.37
2018-09-14T21:02:37.575Z,14.10
2018-09-14T21:05:07.041Z,12.77
2018-09-14T21:07:37.399Z,12.87
2018-09-14T21:10:06.752Z,13.90
2018-09-14T21:12:37.133Z,13.80
2018-09-14T21:15:06.588Z,12.50
2018-09-14T21:17:38.893Z,12.57
2018-09-14T21:20:08.094Z,11.60
2018-09-14T21:22:37.334Z,10.80
2018-09-14T21:25:08.061Z,21.10
2018-09-14T21:27:37.443Z,13.20
2018-09-14T21:30:08.324Z,14.10
2018-09-14T21:32:38.341Z,13.00
2018-09-14T21:35:07.872Z,12.33
2018-09-14T21:37:37.289Z,13.00
2018-09-14T21:40:06.971Z,13.03
2018-09-14T21:42:36.921Z,12.83
2018-09-14T21:45:07.534Z,14.37
2018-09-14T21:47:36.933Z,13.77
2018-09-14T21:50:06.186Z,15.07
2018-09-14T21:52:34.931Z,14.40
2018-09-14T21:55:03.777Z,13.80
2018-09-14T21:57:33.045Z,15.07
2018-09-14T22:00:06.010Z,13.93
2018-09-14T22:02:35.041Z,11.73
2018-09-14T22:05:03.878Z,15.60
2018-09-14T22:07:32.684Z,15.97
2018-09-14T22:10:01.567Z,12.17
2018-09-14T22:12:30.373Z,15.97
2018-09-14T22:14:59.315Z,18.37
2018-09-14T22:17:28.390Z,16.10
2018-09-14T22:19:57.331Z,14.37
2018-09-14T22:22:26.334Z,19.80
2018-09-14T22:24:55.687Z,16.10
2018-09-14T22:27:25.022Z,13.33
2018-09-14T22:29:54.091Z,16.27
2018-09-14T22:32:22.922Z,17.90
2018-09-14T22:34:52.404Z,17.33
2018-09-14T22:37:21.268Z,25.30
2018-09-14T22:39:50.054Z,22.53
2018-09-14T22:42:18.870Z,26.50
2018-09-14T22:44:47.739Z,27.07
2018-09-14T22:47:16.662Z,22.37
2018-09-14T22:49:45.451Z,24.03
2018-09-14T22:52:14.207Z,26.40
2018-09-14T22:54:42.993Z,31.83
2018-09-14T22:57:11.740Z,26.90
2018-09-14T22:59:40.701Z,30.77
2018-09-14T23:02:09.586Z,28.47
2018-09-14T23:04:38.324Z,32.70
2018-09-14T23:07:07.064Z,29.80
2018-09-14T23:09:35.885Z,31.63
2018-09-14T23:12:05.002Z,38.90
2018-09-14T23:14:33.767Z,36.03
2018-09-14T23:17:02.575Z,36.80
2018-09-14T23:19:31.369Z,35.23
2018-09-14T23:22:00.075Z,32.60
2018-09-14T23:24:28.938Z,29.30
2018-09-14T23:26:57.750Z,37.37
2018-09-14T23:29:26.801Z,40.07
2018-09-14T23:31:55.590Z,41.50
2018-09-14T23:34:24.369Z,35.00
2018-09-14T23:36:53.242Z,40.90
2018-09-14T23:39:21.995Z,40.57
2018-09-14T23:41:50.848Z,42.23
2018-09-14T23:44:19.642Z,56.23
2018-09-14T23:46:48.431Z,45.73
2018-09-14T23:49:17.312Z,54.20
2018-09-14T23:51:46.404Z,60.17
2018-09-14T23:54:15.177Z,55.50
2018-09-14T23:56:43.979Z,70.53
2018-09-14T23:59:12.695Z,52.73
